sensor_id;sensor_type;location;lat;lon;timestamp;P1;durP1;ratioP1;P2;durP2;ratioP2
5912;SDS011;2982;42.684;23.356;2023-07-22T00:00:56;8.63;;;4.70;;
5912;SDS011;2982;42.684;23.356;2023-07-22T00:03:21;9.05;;;4.70;;
5912;SDS011;2982;42.684;23.356;2023-07-22T00:05:47;5.85;;;4.57;;
5912;SDS011;2982;42.684;23.356;2023-07-22T00:08:12;5.90;;;4.40;;
5912;SDS011;2982;42.684;23.356;2023-07-22T00:10:41;7.68;;;4.50;;
5912;SDS011;2982;42.684;23.356;2023-07-22T00:13:07;6.15;;;5.13;;
5912;SDS011;2982;42.684;23.356;2023-07-22T00:15:32;8.55;;;5.57;;
5912;SDS011;2982;42.684;23.356;2023-07-22T00:17:57;9.75;;;5.38;;
5912;SDS011;2982;42.684;23.356;2023-07-22T00:20:23;6.15;;;4.60;;
5912;SDS011;2982;42.684;23.356;2023-07-22T00:22:48;8.60;;;4.63;;
5912;SDS011;2982;42.684;23.356;2023-07-22T00:25:13;6.15;;;4.78;;
5912;SDS011;2982;42.684;23.356;2023-07-22T00:27:39;6.43;;;4.30;;
5912;SDS011;2982;42.684;23.356;2023-07-22T00:30:05;5.75;;;4.68;;
5912;SDS011;2982;42.684;23.356;2023-07-22T00:32:31;9.73;;;4.95;;
5912;SDS011;2982;42.684;23.356;2023-07-22T00:34:57;5.65;;;4.30;;
5912;SDS011;2982;42.684;23.356;2023-07-22T00:37:22;6.57;;;4.72;;
5912;SDS011;2982;42.684;23.356;2023-07-22T00:39:47;4.63;;;4.22;;
5912;SDS011;2982;42.684;23.356;2023-07-22T00:42:13;6.03;;;4.25;;
5912;SDS011;2982;42.684;23.356;2023-07-22T00:44:38;4.78;;;4.13;;
5912;SDS011;2982;42.684;23.356;2023-07-22T00:47:03;6.30;;;4.18;;
5912;SDS011;2982;42.684;23.356;2023-07-22T00:49:29;6.78;;;4.45;;
5912;SDS011;2982;42.684;23.356;2023-07-22T00:51:56;6.20;;;5.60;;
5912;SDS011;2982;42.684;23.356;2023-07-22T00:54:25;7.25;;;4.63;;
5912;SDS011;2982;42.684;23.356;2023-07-22T00:56:50;6.70;;;5.05;;
5912;SDS011;2982;42.684;23.356;2023-07-22T00:59:16;9.85;;;4.90;;
5912;SDS011;2982;42.684;23.356;2023-07-22T01:01:41;6.03;;;4.97;;
5912;SDS011;2982;42.684;23.356;2023-07-22T01:04:06;6.00;;;5.22;;
5912;SDS011;2982;42.684;23.356;2023-07-22T01:06:32;6.82;;;4.93;;
5912;SDS011;2982;42.684;23.356;2023-07-22T01:08:59;8.10;;;4.63;;
5912;SDS011;2982;42.684;23.356;2023-07-22T01:11:24;7.50;;;4.53;;
5912;SDS011;2982;42.684;23.356;2023-07-22T01:13:50;5.38;;;4.88;;
5912;SDS011;2982;42.684;23.356;2023-07-22T01:16:15;6.57;;;5.22;;
5912;SDS011;2982;42.684;23.356;2023-07-22T01:18:41;7.47;;;6.18;;
5912;SDS011;2982;42.684;23.356;2023-07-22T01:21:07;9.70;;;5.55;;
5912;SDS011;2982;42.684;23.356;2023-07-22T01:23:34;8.75;;;5.38;;
5912;SDS011;2982;42.684;23.356;2023-07-22T01:26:01;6.75;;;6.05;;
5912;SDS011;2982;42.684;23.356;2023-07-22T01:28:27;12.70;;;6.32;;
5912;SDS011;2982;42.684;23.356;2023-07-22T01:30:52;6.82;;;5.82;;
5912;SDS011;2982;42.684;23.356;2023-07-22T01:33:18;9.48;;;5.38;;
5912;SDS011;2982;42.684;23.356;2023-07-22T01:35:43;10.98;;;5.25;;
5912;SDS011;2982;42.684;23.356;2023-07-22T01:38:08;6.88;;;5.78;;
5912;SDS011;2982;42.684;23.356;2023-07-22T01:40:33;6.90;;;5.07;;
5912;SDS011;2982;42.684;23.356;2023-07-22T01:42:59;5.82;;;5.07;;
5912;SDS011;2982;42.684;23.356;2023-07-22T01:45:24;11.05;;;5.47;;
5912;SDS011;2982;42.684;23.356;2023-07-22T01:47:49;7.50;;;5.03;;
5912;SDS011;2982;42.684;23.356;2023-07-22T01:50:14;6.30;;;5.25;;
5912;SDS011;2982;42.684;23.356;2023-07-22T01:52:40;9.75;;;5.43;;
5912;SDS011;2982;42.684;23.356;2023-07-22T01:55:05;7.32;;;5.38;;
5912;SDS011;2982;42.684;23.356;2023-07-22T01:57:32;9.52;;;5.82;;
5912;SDS011;2982;42.684;23.356;2023-07-22T01:59:57;6.00;;;5.40;;
5912;SDS011;2982;42.684;23.356;2023-07-22T02:02:23;16.10;;;5.97;;
5912;SDS011;2982;42.684;23.356;2023-07-22T02:04:48;9.60;;;6.22;;
5912;SDS011;2982;42.684;23.356;2023-07-22T02:07:13;5.88;;;5.25;;
5912;SDS011;2982;42.684;23.356;2023-07-22T02:09:38;9.35;;;6.15;;
5912;SDS011;2982;42.684;23.356;2023-07-22T02:12:04;8.65;;;5.30;;
5912;SDS011;2982;42.684;23.356;2023-07-22T02:14:29;7.35;;;5.00;;
5912;SDS011;2982;42.684;23.356;2023-07-22T02:16:55;7.40;;;5.47;;
5912;SDS011;2982;42.684;23.356;2023-07-22T02:19:20;6.70;;;5.53;;
5912;SDS011;2982;42.684;23.356;2023-07-22T02:21:45;6.10;;;5.25;;
5912;SDS011;2982;42.684;23.356;2023-07-22T02:24:10;7.40;;;4.97;;
5912;SDS011;2982;42.684;23.356;2023-07-22T02:26:36;6.93;;;5.25;;
5912;SDS011;2982;42.684;23.356;2023-07-22T02:29:01;6.28;;;5.43;;
5912;SDS011;2982;42.684;23.356;2023-07-22T02:31:27;8.07;;;5.50;;
5912;SDS011;2982;42.684;23.356;2023-07-22T02:33:52;6.47;;;5.90;;
5912;SDS011;2982;42.684;23.356;2023-07-22T02:36:18;6.38;;;5.07;;
5912;SDS011;2982;42.684;23.356;2023-07-22T02:38:43;6.63;;;4.72;;
5912;SDS011;2982;42.684;23.356;2023-07-22T02:41:08;11.30;;;5.45;;
5912;SDS011;2982;42.684;23.356;2023-07-22T02:43:34;12.55;;;4.93;;
5912;SDS011;2982;42.684;23.356;2023-07-22T02:46:00;8.30;;;5.55;;
5912;SDS011;2982;42.684;23.356;2023-07-22T02:48:27;9.00;;;5.50;;
5912;SDS011;2982;42.684;23.356;2023-07-22T02:50:52;6.80;;;5.15;;
5912;SDS011;2982;42.684;23.356;2023-07-22T02:53:17;5.32;;;4.82;;
5912;SDS011;2982;42.684;23.356;2023-07-22T02:55:43;7.63;;;5.30;;
5912;SDS011;2982;42.684;23.356;2023-07-22T02:58:08;8.60;;;5.43;;
5912;SDS011;2982;42.684;23.356;2023-07-22T03:00:33;9.98;;;6.20;;
5912;SDS011;2982;42.684;23.356;2023-07-22T03:02:58;6.60;;;6.00;;
5912;SDS011;2982;42.684;23.356;2023-07-22T03:05:24;12.27;;;6.18;;
5912;SDS011;2982;42.684;23.356;2023-07-22T03:07:49;9.57;;;5.50;;
5912;SDS011;2982;42.684;23.356;2023-07-22T03:10:14;8.68;;;5.75;;
5912;SDS011;2982;42.684;23.356;2023-07-22T03:12:39;10.30;;;5.63;;
5912;SDS011;2982;42.684;23.356;2023-07-22T03:15:05;6.57;;;5.93;;
5912;SDS011;2982;42.684;23.356;2023-07-22T03:17:30;6.03;;;5.40;;
5912;SDS011;2982;42.684;23.356;2023-07-22T03:19:56;11.40;;;5.93;;
5912;SDS011;2982;42.684;23.356;2023-07-22T03:22:21;5.65;;;5.07;;
5912;SDS011;2982;42.684;23.356;2023-07-22T03:24:46;9.13;;;5.55;;
5912;SDS011;2982;42.684;23.356;2023-07-22T03:27:12;8.50;;;5.28;;
5912;SDS011;2982;42.684;23.356;2023-07-22T03:29:40;11.00;;;5.50;;
5912;SDS011;2982;42.684;23.356;2023-07-22T03:32:06;7.97;;;6.20;;
5912;SDS011;2982;42.684;23.356;2023-07-22T03:34:31;7.85;;;4.93;;
5912;SDS011;2982;42.684;23.356;2023-07-22T03:36:57;5.93;;;5.38;;
5912;SDS011;2982;42.684;23.356;2023-07-22T03:39:22;8.35;;;5.22;;
5912;SDS011;2982;42.684;23.356;2023-07-22T03:41:48;9.27;;;6.22;;
5912;SDS011;2982;42.684;23.356;2023-07-22T03:44:13;9.45;;;5.00;;
5912;SDS011;2982;42.684;23.356;2023-07-22T03:46:38;7.32;;;5.57;;
5912;SDS011;2982;42.684;23.356;2023-07-22T03:49:04;7.07;;;5.20;;
5912;SDS011;2982;42.684;23.356;2023-07-22T03:51:29;7.75;;;6.10;;
5912;SDS011;2982;42.684;23.356;2023-07-22T03:53:55;6.82;;;5.68;;
5912;SDS011;2982;42.684;23.356;2023-07-22T03:56:21;10.55;;;6.13;;
5912;SDS011;2982;42.684;23.356;2023-07-22T03:58:46;8.82;;;6.28;;
5912;SDS011;2982;42.684;23.356;2023-07-22T04:01:12;12.80;;;9.18;;
5912;SDS011;2982;42.684;23.356;2023-07-22T04:03:38;22.45;;;15.02;;
5912;SDS011;2982;42.684;23.356;2023-07-22T04:06:03;29.10;;;17.33;;
5912;SDS011;2982;42.684;23.356;2023-07-22T04:08:28;24.70;;;15.48;;
5912;SDS011;2982;42.684;23.356;2023-07-22T04:10:54;26.88;;;15.85;;
5912;SDS011;2982;42.684;23.356;2023-07-22T04:13:20;23.85;;;16.38;;
5912;SDS011;2982;42.684;23.356;2023-07-22T04:15:46;27.60;;;14.35;;
5912;SDS011;2982;42.684;23.356;2023-07-22T04:18:12;22.33;;;14.32;;
5912;SDS011;2982;42.684;23.356;2023-07-22T04:20:37;20.23;;;12.07;;
5912;SDS011;2982;42.684;23.356;2023-07-22T04:23:02;16.80;;;12.57;;
5912;SDS011;2982;42.684;23.356;2023-07-22T04:25:28;17.10;;;12.70;;
5912;SDS011;2982;42.684;23.356;2023-07-22T04:27:53;22.23;;;12.60;;
5912;SDS011;2982;42.684;23.356;2023-07-22T04:30:18;16.73;;;11.40;;
5912;SDS011;2982;42.684;23.356;2023-07-22T04:32:43;14.63;;;8.18;;
5912;SDS011;2982;42.684;23.356;2023-07-22T04:35:09;11.32;;;8.30;;
5912;SDS011;2982;42.684;23.356;2023-07-22T04:37:34;10.75;;;7.40;;
5912;SDS011;2982;42.684;23.356;2023-07-22T04:39:59;8.07;;;6.72;;
5912;SDS011;2982;42.684;23.356;2023-07-22T04:42:25;9.55;;;6.28;;
5912;SDS011;2982;42.684;23.356;2023-07-22T04:44:50;10.98;;;7.30;;
5912;SDS011;2982;42.684;23.356;2023-07-22T04:47:15;12.40;;;7.22;;
5912;SDS011;2982;42.684;23.356;2023-07-22T04:49:40;13.75;;;6.85;;
5912;SDS011;2982;42.684;23.356;2023-07-22T04:52:06;7.20;;;6.38;;
5912;SDS011;2982;42.684;23.356;2023-07-22T04:54:32;11.40;;;7.07;;
5912;SDS011;2982;42.684;23.356;2023-07-22T04:56:57;10.75;;;6.90;;
5912;SDS011;2982;42.684;23.356;2023-07-22T04:59:22;8.07;;;6.15;;
5912;SDS011;2982;42.684;23.356;2023-07-22T05:01:47;6.53;;;5.88;;
5912;SDS011;2982;42.684;23.356;2023-07-22T05:04:13;8.63;;;6.72;;
5912;SDS011;2982;42.684;23.356;2023-07-22T05:06:38;10.57;;;7.38;;
5912;SDS011;2982;42.684;23.356;2023-07-22T05:09:03;8.23;;;7.25;;
5912;SDS011;2982;42.684;23.356;2023-07-22T05:11:28;10.95;;;7.30;;
5912;SDS011;2982;42.684;23.356;2023-07-22T05:13:54;8.43;;;6.70;;
5912;SDS011;2982;42.684;23.356;2023-07-22T05:16:19;12.27;;;7.45;;
5912;SDS011;2982;42.684;23.356;2023-07-22T05:18:45;7.15;;;6.47;;
5912;SDS011;2982;42.684;23.356;2023-07-22T05:21:10;10.43;;;7.32;;
5912;SDS011;2982;42.684;23.356;2023-07-22T05:23:35;9.93;;;7.50;;
5912;SDS011;2982;42.684;23.356;2023-07-22T05:26:00;9.48;;;6.93;;
5912;SDS011;2982;42.684;23.356;2023-07-22T05:28:26;10.77;;;7.15;;
5912;SDS011;2982;42.684;23.356;2023-07-22T05:30:51;7.13;;;6.45;;
5912;SDS011;2982;42.684;23.356;2023-07-22T05:33:16;7.03;;;6.25;;
5912;SDS011;2982;42.684;23.356;2023-07-22T05:35:41;10.32;;;7.25;;
5912;SDS011;2982;42.684;23.356;2023-07-22T05:38:07;10.85;;;7.05;;
5912;SDS011;2982;42.684;23.356;2023-07-22T05:40:32;7.70;;;6.68;;
5912;SDS011;2982;42.684;23.356;2023-07-22T05:42:57;10.85;;;7.57;;
5912;SDS011;2982;42.684;23.356;2023-07-22T05:45:23;12.77;;;7.00;;
5912;SDS011;2982;42.684;23.356;2023-07-22T05:47:48;10.98;;;7.40;;
5912;SDS011;2982;42.684;23.356;2023-07-22T05:50:13;8.75;;;6.72;;
5912;SDS011;2982;42.684;23.356;2023-07-22T05:52:39;7.80;;;7.00;;
5912;SDS011;2982;42.684;23.356;2023-07-22T05:55:04;14.40;;;7.32;;
5912;SDS011;2982;42.684;23.356;2023-07-22T05:57:30;11.63;;;6.85;;
5912;SDS011;2982;42.684;23.356;2023-07-22T05:59:55;13.93;;;7.10;;
5912;SDS011;2982;42.684;23.356;2023-07-22T06:02:21;7.32;;;6.40;;
5912;SDS011;2982;42.684;23.356;2023-07-22T06:04:46;8.52;;;7.30;;
5912;SDS011;2982;42.684;23.356;2023-07-22T06:07:11;9.32;;;7.07;;
5912;SDS011;2982;42.684;23.356;2023-07-22T06:09:39;10.85;;;6.38;;
5912;SDS011;2982;42.684;23.356;2023-07-22T06:12:05;7.20;;;6.05;;
5912;SDS011;2982;42.684;23.356;2023-07-22T06:14:30;7.82;;;5.78;;
5912;SDS011;2982;42.684;23.356;2023-07-22T06:16:56;9.77;;;6.65;;
5912;SDS011;2982;42.684;23.356;2023-07-22T06:19:21;8.30;;;6.22;;
5912;SDS011;2982;42.684;23.356;2023-07-22T06:21:46;8.50;;;6.88;;
5912;SDS011;2982;42.684;23.356;2023-07-22T06:24:12;7.60;;;5.63;;
5912;SDS011;2982;42.684;23.356;2023-07-22T06:26:38;6.82;;;6.05;;
5912;SDS011;2982;42.684;23.356;2023-07-22T06:29:03;6.30;;;5.70;;
5912;SDS011;2982;42.684;23.356;2023-07-22T06:31:28;6.20;;;5.65;;
5912;SDS011;2982;42.684;23.356;2023-07-22T06:33:53;8.27;;;5.50;;
5912;SDS011;2982;42.684;23.356;2023-07-22T06:36:19;9.02;;;5.93;;
5912;SDS011;2982;42.684;23.356;2023-07-22T06:38:44;5.88;;;5.28;;
5912;SDS011;2982;42.684;23.356;2023-07-22T06:41:09;8.20;;;5.65;;
5912;SDS011;2982;42.684;23.356;2023-07-22T06:43:34;7.32;;;5.32;;
5912;SDS011;2982;42.684;23.356;2023-07-22T06:46:00;6.43;;;5.90;;
5912;SDS011;2982;42.684;23.356;2023-07-22T06:48:25;11.15;;;5.63;;
5912;SDS011;2982;42.684;23.356;2023-07-22T06:50:50;8.18;;;5.47;;
5912;SDS011;2982;42.684;23.356;2023-07-22T06:53:15;6.03;;;5.43;;
5912;SDS011;2982;42.684;23.356;2023-07-22T06:55:53;6.90;;;6.07;;
5912;SDS011;2982;42.684;23.356;2023-07-22T06:58:22;7.32;;;6.05;;
5912;SDS011;2982;42.684;23.356;2023-07-22T07:00:47;9.65;;;5.88;;
5912;SDS011;2982;42.684;23.356;2023-07-22T07:03:12;11.73;;;5.63;;
5912;SDS011;2982;42.684;23.356;2023-07-22T07:05:37;13.90;;;6.32;;
5912;SDS011;2982;42.684;23.356;2023-07-22T07:08:03;9.55;;;6.47;;
5912;SDS011;2982;42.684;23.356;2023-07-22T07:10:28;10.20;;;6.03;;
5912;SDS011;2982;42.684;23.356;2023-07-22T07:12:53;6.72;;;6.13;;
5912;SDS011;2982;42.684;23.356;2023-07-22T07:15:19;7.63;;;6.63;;
5912;SDS011;2982;42.684;23.356;2023-07-22T07:17:44;8.02;;;6.50;;
5912;SDS011;2982;42.684;23.356;2023-07-22T07:20:09;7.00;;;6.30;;
5912;SDS011;2982;42.684;23.356;2023-07-22T07:22:35;7.95;;;7.00;;
5912;SDS011;2982;42.684;23.356;2023-07-22T07:25:00;8.50;;;6.60;;
5912;SDS011;2982;42.684;23.356;2023-07-22T07:27:27;13.05;;;6.78;;
5912;SDS011;2982;42.684;23.356;2023-07-22T07:29:52;12.30;;;6.97;;
5912;SDS011;2982;42.684;23.356;2023-07-22T07:32:17;6.90;;;6.25;;
5912;SDS011;2982;42.684;23.356;2023-07-22T07:34:42;15.88;;;6.63;;
5912;SDS011;2982;42.684;23.356;2023-07-22T07:37:08;7.00;;;6.15;;
5912;SDS011;2982;42.684;23.356;2023-07-22T07:39:33;11.02;;;7.05;;
5912;SDS011;2982;42.684;23.356;2023-07-22T07:41:58;9.73;;;6.78;;
5912;SDS011;2982;42.684;23.356;2023-07-22T07:44:24;11.10;;;6.95;;
5912;SDS011;2982;42.684;23.356;2023-07-22T07:46:49;10.65;;;6.90;;
5912;SDS011;2982;42.684;23.356;2023-07-22T07:49:17;13.85;;;7.30;;
5912;SDS011;2982;42.684;23.356;2023-07-22T07:51:43;10.70;;;7.00;;
5912;SDS011;2982;42.684;23.356;2023-07-22T07:54:08;10.95;;;7.10;;
5912;SDS011;2982;42.684;23.356;2023-07-22T07:56:33;10.85;;;7.03;;
5912;SDS011;2982;42.684;23.356;2023-07-22T07:58:59;10.85;;;7.20;;
5912;SDS011;2982;42.684;23.356;2023-07-22T08:01:24;13.52;;;7.03;;
5912;SDS011;2982;42.684;23.356;2023-07-22T08:03:49;14.68;;;6.80;;
5912;SDS011;2982;42.684;23.356;2023-07-22T08:06:15;10.90;;;7.18;;
5912;SDS011;2982;42.684;23.356;2023-07-22T08:08:40;12.23;;;7.47;;
5912;SDS011;2982;42.684;23.356;2023-07-22T08:11:07;10.70;;;7.72;;
5912;SDS011;2982;42.684;23.356;2023-07-22T08:13:34;10.35;;;7.97;;
5912;SDS011;2982;42.684;23.356;2023-07-22T08:16:01;9.75;;;6.60;;
5912;SDS011;2982;42.684;23.356;2023-07-22T08:18:27;10.75;;;7.38;;
5912;SDS011;2982;42.684;23.356;2023-07-22T08:20:52;13.85;;;7.43;;
5912;SDS011;2982;42.684;23.356;2023-07-22T08:23:18;7.78;;;7.07;;
5912;SDS011;2982;42.684;23.356;2023-07-22T08:25:44;10.95;;;7.35;;
5912;SDS011;2982;42.684;23.356;2023-07-22T08:28:10;14.20;;;7.47;;
5912;SDS011;2982;42.684;23.356;2023-07-22T08:30:35;10.45;;;7.25;;
5912;SDS011;2982;42.684;23.356;2023-07-22T08:33:00;8.50;;;7.32;;
5912;SDS011;2982;42.684;23.356;2023-07-22T08:35:26;13.95;;;7.80;;
5912;SDS011;2982;42.684;23.356;2023-07-22T08:37:51;11.45;;;8.18;;
5912;SDS011;2982;42.684;23.356;2023-07-22T08:40:16;10.02;;;7.50;;
5912;SDS011;2982;42.684;23.356;2023-07-22T08:42:43;9.18;;;7.57;;
5912;SDS011;2982;42.684;23.356;2023-07-22T08:45:11;14.20;;;7.55;;
5912;SDS011;2982;42.684;23.356;2023-07-22T08:47:44;8.57;;;7.68;;
5912;SDS011;2982;42.684;23.356;2023-07-22T08:50:11;11.13;;;7.45;;
5912;SDS011;2982;42.684;23.356;2023-07-22T08:52:41;12.13;;;7.10;;
5912;SDS011;2982;42.684;23.356;2023-07-22T08:55:06;12.15;;;7.18;;
5912;SDS011;2982;42.684;23.356;2023-07-22T08:57:32;9.32;;;7.00;;
5912;SDS011;2982;42.684;23.356;2023-07-22T08:59:59;15.10;;;7.07;;
5912;SDS011;2982;42.684;23.356;2023-07-22T09:02:25;8.82;;;7.07;;
5912;SDS011;2982;42.684;23.356;2023-07-22T09:04:51;8.75;;;7.50;;
5912;SDS011;2982;42.684;23.356;2023-07-22T09:07:17;10.98;;;7.43;;
5912;SDS011;2982;42.684;23.356;2023-07-22T09:09:44;9.23;;;7.35;;
5912;SDS011;2982;42.684;23.356;2023-07-22T09:12:09;18.60;;;8.27;;
5912;SDS011;2982;42.684;23.356;2023-07-22T09:14:35;12.05;;;7.18;;
5912;SDS011;2982;42.684;23.356;2023-07-22T09:17:04;13.02;;;8.18;;
5912;SDS011;2982;42.684;23.356;2023-07-22T09:19:29;14.38;;;8.27;;
5912;SDS011;2982;42.684;23.356;2023-07-22T09:21:55;11.57;;;8.27;;
5912;SDS011;2982;42.684;23.356;2023-07-22T09:24:23;14.57;;;8.18;;
5912;SDS011;2982;42.684;23.356;2023-07-22T09:26:50;10.75;;;7.63;;
5912;SDS011;2982;42.684;23.356;2023-07-22T09:29:16;10.57;;;7.53;;
5912;SDS011;2982;42.684;23.356;2023-07-22T09:31:52;15.45;;;7.93;;
5912;SDS011;2982;42.684;23.356;2023-07-22T09:34:18;10.65;;;7.13;;
5912;SDS011;2982;42.684;23.356;2023-07-22T09:36:53;20.25;;;8.23;;
5912;SDS011;2982;42.684;23.356;2023-07-22T09:39:19;13.35;;;8.32;;
5912;SDS011;2982;42.684;23.356;2023-07-22T09:41:44;11.88;;;7.80;;
5912;SDS011;2982;42.684;23.356;2023-07-22T09:44:10;10.75;;;6.85;;
5912;SDS011;2982;42.684;23.356;2023-07-22T09:46:35;18.45;;;8.05;;
5912;SDS011;2982;42.684;23.356;2023-07-22T09:49:04;13.75;;;7.20;;
5912;SDS011;2982;42.684;23.356;2023-07-22T09:51:34;14.68;;;8.10;;
5912;SDS011;2982;42.684;23.356;2023-07-22T09:54:04;16.38;;;8.43;;
5912;SDS011;2982;42.684;23.356;2023-07-22T09:56:30;13.93;;;7.72;;
5912;SDS011;2982;42.684;23.356;2023-07-22T09:58:57;14.63;;;7.57;;
5912;SDS011;2982;42.684;23.356;2023-07-22T10:01:24;14.13;;;6.97;;
5912;SDS011;2982;42.684;23.356;2023-07-22T10:03:53;9.25;;;7.78;;
5912;SDS011;2982;42.684;23.356;2023-07-22T10:06:19;16.65;;;8.10;;
5912;SDS011;2982;42.684;23.356;2023-07-22T10:08:45;14.07;;;7.22;;
5912;SDS011;2982;42.684;23.356;2023-07-22T10:11:12;15.07;;;11.20;;
5912;SDS011;2982;42.684;23.356;2023-07-22T10:13:39;18.30;;;7.30;;
5912;SDS011;2982;42.684;23.356;2023-07-22T10:16:04;12.55;;;7.28;;
5912;SDS011;2982;42.684;23.356;2023-07-22T10:18:30;13.32;;;7.95;;
5912;SDS011;2982;42.684;23.356;2023-07-22T10:20:57;13.70;;;7.15;;
5912;SDS011;2982;42.684;23.356;2023-07-22T10:23:23;22.50;;;8.73;;
5912;SDS011;2982;42.684;23.356;2023-07-22T10:25:50;12.07;;;7.15;;
5912;SDS011;2982;42.684;23.356;2023-07-22T10:28:18;18.73;;;8.57;;
5912;SDS011;2982;42.684;23.356;2023-07-22T10:30:45;18.17;;;7.53;;
5912;SDS011;2982;42.684;23.356;2023-07-22T10:33:10;17.70;;;7.68;;
5912;SDS011;2982;42.684;23.356;2023-07-22T10:35:42;14.55;;;7.05;;
5912;SDS011;2982;42.684;23.356;2023-07-22T10:38:09;10.77;;;7.72;;
5912;SDS011;2982;42.684;23.356;2023-07-22T10:40:44;15.38;;;6.57;;
5912;SDS011;2982;42.684;23.356;2023-07-22T10:43:11;15.05;;;7.85;;
5912;SDS011;2982;42.684;23.356;2023-07-22T10:45:41;22.45;;;7.18;;
5912;SDS011;2982;42.684;23.356;2023-07-22T10:48:09;21.02;;;6.93;;
5912;SDS011;2982;42.684;23.356;2023-07-22T10:50:39;24.20;;;6.93;;
5912;SDS011;2982;42.684;23.356;2023-07-22T11:09:53;17.95;;;5.88;;
5912;SDS011;2982;42.684;23.356;2023-07-22T11:14:28;14.82;;;6.10;;
5912;SDS011;2982;42.684;23.356;2023-07-22T11:16:58;21.90;;;6.07;;
5912;SDS011;2982;42.684;23.356;2023-07-22T11:19:26;23.08;;;6.35;;
5912;SDS011;2982;42.684;23.356;2023-07-22T11:21:52;21.25;;;6.03;;
5912;SDS011;2982;42.684;23.356;2023-07-22T11:24:19;14.50;;;5.68;;
5912;SDS011;2982;42.684;23.356;2023-07-22T11:26:46;14.90;;;5.97;;
5912;SDS011;2982;42.684;23.356;2023-07-22T11:29:12;23.80;;;7.03;;
5912;SDS011;2982;42.684;23.356;2023-07-22T11:31:39;16.13;;;6.68;;
5912;SDS011;2982;42.684;23.356;2023-07-22T11:34:05;17.15;;;5.93;;
5912;SDS011;2982;42.684;23.356;2023-07-22T11:36:31;19.63;;;6.22;;
5912;SDS011;2982;42.684;23.356;2023-07-22T11:39:06;20.65;;;6.40;;
5912;SDS011;2982;42.684;23.356;2023-07-22T11:41:34;25.50;;;7.15;;
5912;SDS011;2982;42.684;23.356;2023-07-22T11:44:00;16.52;;;5.68;;
5912;SDS011;2982;42.684;23.356;2023-07-22T11:46:27;18.98;;;6.32;;
5912;SDS011;2982;42.684;23.356;2023-07-22T11:48:54;16.02;;;6.18;;
5912;SDS011;2982;42.684;23.356;2023-07-22T11:51:24;10.63;;;5.28;;
5912;SDS011;2982;42.684;23.356;2023-07-22T11:53:50;20.92;;;6.00;;
5912;SDS011;2982;42.684;23.356;2023-07-22T11:56:24;21.80;;;6.38;;
5912;SDS011;2982;42.684;23.356;2023-07-22T11:58:51;21.75;;;6.47;;
5912;SDS011;2982;42.684;23.356;2023-07-22T12:01:18;19.95;;;6.65;;
5912;SDS011;2982;42.684;23.356;2023-07-22T12:03:44;12.60;;;5.85;;
5912;SDS011;2982;42.684;23.356;2023-07-22T12:06:09;15.30;;;5.50;;
5912;SDS011;2982;42.684;23.356;2023-07-22T12:08:36;19.77;;;6.35;;
5912;SDS011;2982;42.684;23.356;2023-07-22T12:11:01;17.98;;;6.40;;
5912;SDS011;2982;42.684;23.356;2023-07-22T12:13:27;21.08;;;6.10;;
5912;SDS011;2982;42.684;23.356;2023-07-22T12:16:10;21.40;;;6.10;;
5912;SDS011;2982;42.684;23.356;2023-07-22T12:18:45;21.08;;;6.75;;
5912;SDS011;2982;42.684;23.356;2023-07-22T12:21:11;24.88;;;5.15;;
5912;SDS011;2982;42.684;23.356;2023-07-22T12:23:37;26.88;;;6.32;;
5912;SDS011;2982;42.684;23.356;2023-07-22T12:26:03;15.73;;;6.07;;
5912;SDS011;2982;42.684;23.356;2023-07-22T12:28:31;24.20;;;6.43;;
5912;SDS011;2982;42.684;23.356;2023-07-22T12:30:57;31.92;;;6.82;;
5912;SDS011;2982;42.684;23.356;2023-07-22T12:33:23;11.98;;;5.75;;
5912;SDS011;2982;42.684;23.356;2023-07-22T12:35:48;21.98;;;6.43;;
5912;SDS011;2982;42.684;23.356;2023-07-22T12:38:13;22.05;;;6.18;;
5912;SDS011;2982;42.684;23.356;2023-07-22T12:40:39;22.27;;;5.38;;
5912;SDS011;2982;42.684;23.356;2023-07-22T12:43:04;16.42;;;5.45;;
5912;SDS011;2982;42.684;23.356;2023-07-22T12:45:29;23.52;;;6.00;;
5912;SDS011;2982;42.684;23.356;2023-07-22T12:47:54;20.98;;;5.95;;
5912;SDS011;2982;42.684;23.356;2023-07-22T12:50:20;17.90;;;6.35;;
5912;SDS011;2982;42.684;23.356;2023-07-22T12:52:45;21.85;;;5.60;;
5912;SDS011;2982;42.684;23.356;2023-07-22T12:55:10;15.30;;;5.82;;
5912;SDS011;2982;42.684;23.356;2023-07-22T12:57:36;21.83;;;6.15;;
5912;SDS011;2982;42.684;23.356;2023-07-22T13:00:01;19.85;;;5.72;;
5912;SDS011;2982;42.684;23.356;2023-07-22T13:02:27;15.50;;;6.40;;
5912;SDS011;2982;42.684;23.356;2023-07-22T13:04:52;26.45;;;6.22;;
5912;SDS011;2982;42.684;23.356;2023-07-22T13:07:17;25.77;;;6.07;;
5912;SDS011;2982;42.684;23.356;2023-07-22T13:09:43;23.33;;;6.05;;
5912;SDS011;2982;42.684;23.356;2023-07-22T13:12:15;24.02;;;6.30;;
5912;SDS011;2982;42.684;23.356;2023-07-22T13:14:41;21.65;;;6.13;;
5912;SDS011;2982;42.684;23.356;2023-07-22T13:17:06;24.35;;;5.18;;
5912;SDS011;2982;42.684;23.356;2023-07-22T13:19:31;15.93;;;6.35;;
5912;SDS011;2982;42.684;23.356;2023-07-22T13:21:56;21.85;;;5.55;;
5912;SDS011;2982;42.684;23.356;2023-07-22T13:24:22;17.25;;;6.00;;
5912;SDS011;2982;42.684;23.356;2023-07-22T13:26:47;15.18;;;5.75;;
5912;SDS011;2982;42.684;23.356;2023-07-22T13:29:12;21.17;;;6.53;;
5912;SDS011;2982;42.684;23.356;2023-07-22T13:31:38;20.17;;;5.50;;
5912;SDS011;2982;42.684;23.356;2023-07-22T13:34:03;20.58;;;6.25;;
5912;SDS011;2982;42.684;23.356;2023-07-22T13:36:29;19.60;;;6.63;;
5912;SDS011;2982;42.684;23.356;2023-07-22T13:38:54;26.13;;;5.85;;
5912;SDS011;2982;42.684;23.356;2023-07-22T13:41:19;19.67;;;6.60;;
5912;SDS011;2982;42.684;23.356;2023-07-22T13:43:45;25.00;;;6.38;;
5912;SDS011;2982;42.684;23.356;2023-07-22T13:46:10;19.17;;;5.28;;
5912;SDS011;2982;42.684;23.356;2023-07-22T13:48:35;22.90;;;6.05;;
5912;SDS011;2982;42.684;23.356;2023-07-22T13:51:00;22.40;;;6.07;;
5912;SDS011;2982;42.684;23.356;2023-07-22T13:53:26;25.20;;;6.57;;
5912;SDS011;2982;42.684;23.356;2023-07-22T13:55:51;19.45;;;5.30;;
5912;SDS011;2982;42.684;23.356;2023-07-22T13:58:16;26.65;;;5.60;;
5912;SDS011;2982;42.684;23.356;2023-07-22T14:00:41;23.95;;;6.60;;
5912;SDS011;2982;42.684;23.356;2023-07-22T14:03:07;16.10;;;5.65;;
5912;SDS011;2982;42.684;23.356;2023-07-22T14:05:32;17.75;;;6.10;;
5912;SDS011;2982;42.684;23.356;2023-07-22T14:07:57;20.90;;;6.47;;
5912;SDS011;2982;42.684;23.356;2023-07-22T14:10:23;14.50;;;5.28;;
5912;SDS011;2982;42.684;23.356;2023-07-22T14:12:48;26.48;;;5.80;;
5912;SDS011;2982;42.684;23.356;2023-07-22T14:15:13;23.52;;;6.40;;
5912;SDS011;2982;42.684;23.356;2023-07-22T14:17:38;23.63;;;6.03;;
5912;SDS011;2982;42.684;23.356;2023-07-22T14:20:04;23.23;;;5.93;;
5912;SDS011;2982;42.684;23.356;2023-07-22T14:22:30;22.17;;;5.97;;
5912;SDS011;2982;42.684;23.356;2023-07-22T14:24:55;26.70;;;4.75;;
5912;SDS011;2982;42.684;23.356;2023-07-22T14:27:20;21.25;;;6.28;;
5912;SDS011;2982;42.684;23.356;2023-07-22T14:29:46;19.35;;;5.78;;
5912;SDS011;2982;42.684;23.356;2023-07-22T14:32:11;12.55;;;4.78;;
5912;SDS011;2982;42.684;23.356;2023-07-22T14:34:36;18.70;;;5.20;;
5912;SDS011;2982;42.684;23.356;2023-07-22T14:37:02;25.67;;;5.30;;
5912;SDS011;2982;42.684;23.356;2023-07-22T14:39:27;30.73;;;6.00;;
5912;SDS011;2982;42.684;23.356;2023-07-22T14:41:52;21.60;;;6.15;;
5912;SDS011;2982;42.684;23.356;2023-07-22T14:44:19;23.60;;;6.43;;
5912;SDS011;2982;42.684;23.356;2023-07-22T14:46:44;22.48;;;6.07;;
5912;SDS011;2982;42.684;23.356;2023-07-22T14:49:09;18.25;;;5.75;;
5912;SDS011;2982;42.684;23.356;2023-07-22T14:51:35;18.23;;;5.32;;
5912;SDS011;2982;42.684;23.356;2023-07-22T14:54:00;22.45;;;6.18;;
5912;SDS011;2982;42.684;23.356;2023-07-22T14:56:25;19.83;;;5.63;;
5912;SDS011;2982;42.684;23.356;2023-07-22T14:58:51;13.40;;;5.07;;
5912;SDS011;2982;42.684;23.356;2023-07-22T15:01:16;23.27;;;5.45;;
5912;SDS011;2982;42.684;23.356;2023-07-22T15:03:41;18.50;;;5.60;;